sensor_id;sensor_type;location;lat;lon;timestamp;temperature;humidity
76789;DHT22;65740;52.464;13.446;2023-06-10T00:00:34;26.50;33.50
76789;DHT22;65740;52.464;13.446;2023-06-10T00:02:59;26.50;33.50
76789;DHT22;65740;52.464;13.446;2023-06-10T00:05:25;26.50;33.50
76789;DHT22;65740;52.464;13.446;2023-06-10T00:07:52;26.50;34.30
76789;DHT22;65740;52.464;13.446;2023-06-10T00:10:20;26.50;33.50
76789;DHT22;65740;52.464;13.446;2023-06-10T00:12:46;26.40;33.50
76789;DHT22;65740;52.464;13.446;2023-06-10T00:15:11;26.40;33.50
76789;DHT22;65740;52.464;13.446;2023-06-10T00:17:37;26.40;33.50
76789;DHT22;65740;52.464;13.446;2023-06-10T00:20:08;26.40;34.10
76789;DHT22;65740;52.464;13.446;2023-06-10T00:22:36;26.30;33.40
76789;DHT22;65740;52.464;13.446;2023-06-10T00:25:03;26.30;33.40
76789;DHT22;65740;52.464;13.446;2023-06-10T00:27:29;26.30;33.40
76789;DHT22;65740;52.464;13.446;2023-06-10T00:30:01;26.30;33.40
76789;DHT22;65740;52.464;13.446;2023-06-10T00:32:29;26.30;33.40
76789;DHT22;65740;52.464;13.446;2023-06-10T00:34:55;26.20;33.50
76789;DHT22;65740;52.464;13.446;2023-06-10T00:37:21;26.20;33.30
76789;DHT22;65740;52.464;13.446;2023-06-10T00:39:46;26.10;33.30
76789;DHT22;65740;52.464;13.446;2023-06-10T00:42:12;26.10;33.30
76789;DHT22;65740;52.464;13.446;2023-06-10T00:44:37;26.10;33.30
76789;DHT22;65740;52.464;13.446;2023-06-10T00:47:03;26.10;33.30
76789;DHT22;65740;52.464;13.446;2023-06-10T00:49:29;26.10;33.30
76789;DHT22;65740;52.464;13.446;2023-06-10T00:51:55;26.00;33.20
76789;DHT22;65740;52.464;13.446;2023-06-10T00:54:21;26.00;33.20
76789;DHT22;65740;52.464;13.446;2023-06-10T00:56:47;26.00;33.90
76789;DHT22;65740;52.464;13.446;2023-06-10T00:59:13;26.00;33.20
76789;DHT22;65740;52.464;13.446;2023-06-10T01:01:41;26.10;33.30
76789;DHT22;65740;52.464;13.446;2023-06-10T01:04:08;26.10;33.30
76789;DHT22;65740;52.464;13.446;2023-06-10T01:09:49;26.00;33.20
76789;DHT22;65740;52.464;13.446;2023-06-10T01:12:39;26.00;33.20
76789;DHT22;65740;52.464;13.446;2023-06-10T01:15:06;25.90;33.10
76789;DHT22;65740;52.464;13.446;2023-06-10T01:17:33;25.90;33.10
76789;DHT22;65740;52.464;13.446;2023-06-10T01:19:59;25.90;33.20
76789;DHT22;65740;52.464;13.446;2023-06-10T01:22:25;25.90;33.50
76789;DHT22;65740;52.464;13.446;2023-06-10T01:24:56;25.90;33.20
76789;DHT22;65740;52.464;13.446;2023-06-10T01:27:29;25.90;33.10
76789;DHT22;65740;52.464;13.446;2023-06-10T01:29:59;26.00;33.20
76789;DHT22;65740;52.464;13.446;2023-06-10T01:32:46;25.90;33.40
76789;DHT22;65740;52.464;13.446;2023-06-10T01:35:13;25.90;33.50
76789;DHT22;65740;52.464;13.446;2023-06-10T01:37:40;25.90;33.20
76789;DHT22;65740;52.464;13.446;2023-06-10T01:40:07;25.80;33.20
76789;DHT22;65740;52.464;13.446;2023-06-10T01:42:33;25.80;33.60
76789;DHT22;65740;52.464;13.446;2023-06-10T01:44:59;25.80;33.40
76789;DHT22;65740;52.464;13.446;2023-06-10T01:47:24;25.80;33.50
76789;DHT22;65740;52.464;13.446;2023-06-10T01:49:50;25.80;33.70
76789;DHT22;65740;52.464;13.446;2023-06-10T01:52:16;25.70;33.80
76789;DHT22;65740;52.464;13.446;2023-06-10T01:54:41;25.80;33.50
76789;DHT22;65740;52.464;13.446;2023-06-10T01:57:07;25.70;33.70
76789;DHT22;65740;52.464;13.446;2023-06-10T01:59:33;25.70;33.70
76789;DHT22;65740;52.464;13.446;2023-06-10T02:01:58;25.60;34.00
76789;DHT22;65740;52.464;13.446;2023-06-10T02:04:24;25.60;33.60
76789;DHT22;65740;52.464;13.446;2023-06-10T02:06:49;25.70;33.90
76789;DHT22;65740;52.464;13.446;2023-06-10T02:09:15;25.60;33.70
76789;DHT22;65740;52.464;13.446;2023-06-10T02:11:41;25.50;34.00
76789;DHT22;65740;52.464;13.446;2023-06-10T02:14:07;25.50;33.90
76789;DHT22;65740;52.464;13.446;2023-06-10T02:16:32;25.50;33.80
76789;DHT22;65740;52.464;13.446;2023-06-10T02:18:58;25.40;33.70
76789;DHT22;65740;52.464;13.446;2023-06-10T02:21:25;25.50;33.50
76789;DHT22;65740;52.464;13.446;2023-06-10T02:23:51;25.50;33.50
76789;DHT22;65740;52.464;13.446;2023-06-10T02:26:17;25.50;32.90
76789;DHT22;65740;52.464;13.446;2023-06-10T02:28:43;25.50;33.50
76789;DHT22;65740;52.464;13.446;2023-06-10T02:31:08;25.40;33.40
76789;DHT22;65740;52.464;13.446;2023-06-10T02:33:34;25.40;33.60
76789;DHT22;65740;52.464;13.446;2023-06-10T02:36:00;25.40;33.90
76789;DHT22;65740;52.464;13.446;2023-06-10T02:38:25;25.40;34.20
76789;DHT22;65740;52.464;13.446;2023-06-10T02:40:51;25.40;33.70
76789;DHT22;65740;52.464;13.446;2023-06-10T02:43:17;25.40;33.60
76789;DHT22;65740;52.464;13.446;2023-06-10T02:45:42;25.40;33.50
76789;DHT22;65740;52.464;13.446;2023-06-10T02:48:08;25.40;33.70
76789;DHT22;65740;52.464;13.446;2023-06-10T02:50:33;25.40;33.60
76789;DHT22;65740;52.464;13.446;2023-06-10T02:52:59;25.40;33.80
76789;DHT22;65740;52.464;13.446;2023-06-10T02:55:25;25.30;34.10
76789;DHT22;65740;52.464;13.446;2023-06-10T02:57:52;25.30;34.10
76789;DHT22;65740;52.464;13.446;2023-06-10T03:00:19;25.30;33.80
76789;DHT22;65740;52.464;13.446;2023-06-10T03:02:45;25.30;33.90
76789;DHT22;65740;52.464;13.446;2023-06-10T03:05:11;25.20;34.00
76789;DHT22;65740;52.464;13.446;2023-06-10T03:07:38;25.20;33.70
76789;DHT22;65740;52.464;13.446;2023-06-10T03:10:05;25.20;33.90
76789;DHT22;65740;52.464;13.446;2023-06-10T03:12:31;25.20;33.80
76789;DHT22;65740;52.464;13.446;2023-06-10T03:14:57;25.20;34.10
76789;DHT22;65740;52.464;13.446;2023-06-10T03:17:23;25.20;34.20
76789;DHT22;65740;52.464;13.446;2023-06-10T03:19:48;25.20;33.60
76789;DHT22;65740;52.464;13.446;2023-06-10T03:22:16;25.20;33.80
76789;DHT22;65740;52.464;13.446;2023-06-10T03:24:41;25.10;34.10
76789;DHT22;65740;52.464;13.446;2023-06-10T03:27:09;25.10;34.50
76789;DHT22;65740;52.464;13.446;2023-06-10T03:29:36;25.10;34.30
76789;DHT22;65740;52.464;13.446;2023-06-10T03:32:02;25.10;33.80
76789;DHT22;65740;52.464;13.446;2023-06-10T03:34:28;25.10;34.00
76789;DHT22;65740;52.464;13.446;2023-06-10T03:36:55;25.10;34.30
76789;DHT22;65740;52.464;13.446;2023-06-10T03:39:21;25.10;34.40
76789;DHT22;65740;52.464;13.446;2023-06-10T03:41:48;25.00;34.70
76789;DHT22;65740;52.464;13.446;2023-06-10T03:44:14;25.00;34.60
76789;DHT22;65740;52.464;13.446;2023-06-10T03:46:40;24.90;34.70
76789;DHT22;65740;52.464;13.446;2023-06-10T03:49:06;25.00;34.50
76789;DHT22;65740;52.464;13.446;2023-06-10T03:51:32;24.90;34.60
76789;DHT22;65740;52.464;13.446;2023-06-10T03:53:57;25.00;34.60
76789;DHT22;65740;52.464;13.446;2023-06-10T03:56:23;25.00;34.00
76789;DHT22;65740;52.464;13.446;2023-06-10T03:58:48;25.00;34.50
76789;DHT22;65740;52.464;13.446;2023-06-10T04:01:14;25.00;34.50
76789;DHT22;65740;52.464;13.446;2023-06-10T04:03:39;24.90;34.80
76789;DHT22;65740;52.464;13.446;2023-06-10T04:06:07;24.90;34.90
76789;DHT22;65740;52.464;13.446;2023-06-10T04:08:33;24.90;34.60
76789;DHT22;65740;52.464;13.446;2023-06-10T04:10:58;24.90;34.50
76789;DHT22;65740;52.464;13.446;2023-06-10T04:13:24;24.90;34.30
76789;DHT22;65740;52.464;13.446;2023-06-10T04:15:50;24.90;34.70
76789;DHT22;65740;52.464;13.446;2023-06-10T04:18:16;24.80;34.60
76789;DHT22;65740;52.464;13.446;2023-06-10T04:20:42;24.80;34.70
76789;DHT22;65740;52.464;13.446;2023-06-10T04:23:07;24.80;34.90
76789;DHT22;65740;52.464;13.446;2023-06-10T04:25:33;24.70;34.50
76789;DHT22;65740;52.464;13.446;2023-06-10T04:27:59;24.70;34.90
76789;DHT22;65740;52.464;13.446;2023-06-10T04:30:24;24.70;35.10
76789;DHT22;65740;52.464;13.446;2023-06-10T04:32:50;24.70;34.60
76789;DHT22;65740;52.464;13.446;2023-06-10T04:35:16;24.70;34.80
76789;DHT22;65740;52.464;13.446;2023-06-10T04:37:41;24.70;34.50
76789;DHT22;65740;52.464;13.446;2023-06-10T04:40:08;24.70;34.70
76789;DHT22;65740;52.464;13.446;2023-06-10T04:42:35;24.70;34.60
76789;DHT22;65740;52.464;13.446;2023-06-10T04:45:00;24.70;35.50
76789;DHT22;65740;52.464;13.446;2023-06-10T04:47:27;24.70;34.30
76789;DHT22;65740;52.464;13.446;2023-06-10T04:49:52;24.60;34.50
76789;DHT22;65740;52.464;13.446;2023-06-10T04:52:18;24.60;34.40
76789;DHT22;65740;52.464;13.446;2023-06-10T04:54:43;24.60;35.10
76789;DHT22;65740;52.464;13.446;2023-06-10T04:57:09;24.60;34.60
76789;DHT22;65740;52.464;13.446;2023-06-10T04:59:37;24.60;34.60
76789;DHT22;65740;52.464;13.446;2023-06-10T05:02:04;24.60;34.50
76789;DHT22;65740;52.464;13.446;2023-06-10T05:04:30;24.50;34.70
76789;DHT22;65740;52.464;13.446;2023-06-10T05:06:55;24.50;34.00
76789;DHT22;65740;52.464;13.446;2023-06-10T05:09:21;24.50;35.00
76789;DHT22;65740;52.464;13.446;2023-06-10T05:11:47;24.50;34.70
76789;DHT22;65740;52.464;13.446;2023-06-10T05:14:12;24.50;35.00
76789;DHT22;65740;52.464;13.446;2023-06-10T05:16:38;24.50;35.00
76789;DHT22;65740;52.464;13.446;2023-06-10T05:19:04;24.50;34.40
76789;DHT22;65740;52.464;13.446;2023-06-10T05:21:30;24.50;34.60
76789;DHT22;65740;52.464;13.446;2023-06-10T05:23:55;24.50;34.50
76789;DHT22;65740;52.464;13.446;2023-06-10T05:26:21;24.50;34.60
76789;DHT22;65740;52.464;13.446;2023-06-10T05:28:47;24.50;35.40
76789;DHT22;65740;52.464;13.446;2023-06-10T05:31:13;24.50;34.70
76789;DHT22;65740;52.464;13.446;2023-06-10T05:33:39;24.50;34.60
76789;DHT22;65740;52.464;13.446;2023-06-10T05:36:05;24.50;34.70
76789;DHT22;65740;52.464;13.446;2023-06-10T05:38:31;24.50;35.00
76789;DHT22;65740;52.464;13.446;2023-06-10T05:40:56;24.50;35.10
76789;DHT22;65740;52.464;13.446;2023-06-10T05:43:22;24.40;34.60
76789;DHT22;65740;52.464;13.446;2023-06-10T05:45:48;24.40;35.10
76789;DHT22;65740;52.464;13.446;2023-06-10T05:48:13;24.50;34.90
76789;DHT22;65740;52.464;13.446;2023-06-10T05:50:39;24.50;35.80
76789;DHT22;65740;52.464;13.446;2023-06-10T05:53:07;24.50;34.60
76789;DHT22;65740;52.464;13.446;2023-06-10T05:55:43;24.50;34.90
76789;DHT22;65740;52.464;13.446;2023-06-10T05:58:09;24.40;34.70
76789;DHT22;65740;52.464;13.446;2023-06-10T06:00:35;24.50;34.80
76789;DHT22;65740;52.464;13.446;2023-06-10T06:03:00;24.50;35.30
76789;DHT22;65740;52.464;13.446;2023-06-10T06:05:26;24.40;35.10
76789;DHT22;65740;52.464;13.446;2023-06-10T06:07:52;24.40;35.10
76789;DHT22;65740;52.464;13.446;2023-06-10T06:10:18;24.40;34.50
76789;DHT22;65740;52.464;13.446;2023-06-10T06:12:44;24.40;34.60
76789;DHT22;65740;52.464;13.446;2023-06-10T06:15:10;24.40;34.60
76789;DHT22;65740;52.464;13.446;2023-06-10T06:17:36;24.40;34.60
76789;DHT22;65740;52.464;13.446;2023-06-10T06:20:02;24.40;34.70
76789;DHT22;65740;52.464;13.446;2023-06-10T06:22:28;24.40;34.60
76789;DHT22;65740;52.464;13.446;2023-06-10T06:24:54;24.50;34.60
76789;DHT22;65740;52.464;13.446;2023-06-10T06:27:19;24.40;34.30
76789;DHT22;65740;52.464;13.446;2023-06-10T06:29:46;24.40;34.50
76789;DHT22;65740;52.464;13.446;2023-06-10T06:32:12;24.40;34.40
76789;DHT22;65740;52.464;13.446;2023-06-10T06:34:37;24.50;34.60
76789;DHT22;65740;52.464;13.446;2023-06-10T06:37:03;24.40;34.50
76789;DHT22;65740;52.464;13.446;2023-06-10T06:39:29;24.50;34.50
76789;DHT22;65740;52.464;13.446;2023-06-10T06:41:54;24.40;34.90
76789;DHT22;65740;52.464;13.446;2023-06-10T06:44:20;24.40;34.70
76789;DHT22;65740;52.464;13.446;2023-06-10T06:46:45;24.50;34.90
76789;DHT22;65740;52.464;13.446;2023-06-10T06:49:11;24.50;34.60
76789;DHT22;65740;52.464;13.446;2023-06-10T06:51:37;24.40;34.60
76789;DHT22;65740;52.464;13.446;2023-06-10T06:54:03;24.40;34.60
76789;DHT22;65740;52.464;13.446;2023-06-10T06:56:31;24.50;34.70
76789;DHT22;65740;52.464;13.446;2023-06-10T06:58:56;24.50;34.70
76789;DHT22;65740;52.464;13.446;2023-06-10T07:01:22;24.50;34.70
76789;DHT22;65740;52.464;13.446;2023-06-10T07:03:47;24.50;34.90
76789;DHT22;65740;52.464;13.446;2023-06-10T07:06:13;24.50;35.00
76789;DHT22;65740;52.464;13.446;2023-06-10T07:08:39;24.50;35.10
76789;DHT22;65740;52.464;13.446;2023-06-10T07:11:04;24.50;35.30
76789;DHT22;65740;52.464;13.446;2023-06-10T07:13:30;24.50;35.50
76789;DHT22;65740;52.464;13.446;2023-06-10T07:15:56;24.50;35.10
76789;DHT22;65740;52.464;13.446;2023-06-10T07:18:21;24.50;35.30
76789;DHT22;65740;52.464;13.446;2023-06-10T07:20:47;24.50;35.20
76789;DHT22;65740;52.464;13.446;2023-06-10T07:23:12;24.50;35.50
76789;DHT22;65740;52.464;13.446;2023-06-10T07:25:38;24.50;35.50
76789;DHT22;65740;52.464;13.446;2023-06-10T07:28:04;24.50;35.50
76789;DHT22;65740;52.464;13.446;2023-06-10T07:30:29;24.50;35.50
76789;DHT22;65740;52.464;13.446;2023-06-10T07:32:55;24.50;35.40
76789;DHT22;65740;52.464;13.446;2023-06-10T07:35:21;24.50;35.50
76789;DHT22;65740;52.464;13.446;2023-06-10T07:37:47;24.60;35.60
76789;DHT22;65740;52.464;13.446;2023-06-10T07:40:12;24.60;35.60
76789;DHT22;65740;52.464;13.446;2023-06-10T07:42:38;24.60;35.60
76789;DHT22;65740;52.464;13.446;2023-06-10T07:45:04;24.60;35.60
76789;DHT22;65740;52.464;13.446;2023-06-10T07:47:32;24.60;35.70
76789;DHT22;65740;52.464;13.446;2023-06-10T07:49:58;24.60;35.70
76789;DHT22;65740;52.464;13.446;2023-06-10T07:52:24;24.60;35.60
76789;DHT22;65740;52.464;13.446;2023-06-10T07:54:51;24.60;35.90
76789;DHT22;65740;52.464;13.446;2023-06-10T07:57:18;24.60;35.80
76789;DHT22;65740;52.464;13.446;2023-06-10T07:59:44;24.60;35.90
76789;DHT22;65740;52.464;13.446;2023-06-10T08:02:10;24.60;36.10
76789;DHT22;65740;52.464;13.446;2023-06-10T08:04:35;24.60;35.70
76789;DHT22;65740;52.464;13.446;2023-06-10T08:07:01;24.70;36.10
76789;DHT22;65740;52.464;13.446;2023-06-10T08:09:27;24.60;36.00
76789;DHT22;65740;52.464;13.446;2023-06-10T08:11:53;24.70;36.30
76789;DHT22;65740;52.464;13.446;2023-06-10T08:14:19;24.70;36.30
76789;DHT22;65740;52.464;13.446;2023-06-10T08:16:45;24.70;36.30
76789;DHT22;65740;52.464;13.446;2023-06-10T08:19:11;24.70;36.50
76789;DHT22;65740;52.464;13.446;2023-06-10T08:21:37;24.70;36.20
76789;DHT22;65740;52.464;13.446;2023-06-10T08:24:05;24.70;36.50
76789;DHT22;65740;52.464;13.446;2023-06-10T08:26:31;24.70;37.00
76789;DHT22;65740;52.464;13.446;2023-06-10T08:28:56;24.70;37.10
76789;DHT22;65740;52.464;13.446;2023-06-10T08:31:22;24.70;36.80
76789;DHT22;65740;52.464;13.446;2023-06-10T08:33:48;24.70;37.10
76789;DHT22;65740;52.464;13.446;2023-06-10T08:36:13;24.70;37.20
76789;DHT22;65740;52.464;13.446;2023-06-10T08:38:39;24.70;36.40
76789;DHT22;65740;52.464;13.446;2023-06-10T08:41:06;24.80;36.90
76789;DHT22;65740;52.464;13.446;2023-06-10T08:43:45;24.80;37.50
76789;DHT22;65740;52.464;13.446;2023-06-10T08:46:11;24.80;37.30
76789;DHT22;65740;52.464;13.446;2023-06-10T08:48:42;24.80;37.60
76789;DHT22;65740;52.464;13.446;2023-06-10T08:51:10;24.80;37.60
76789;DHT22;65740;52.464;13.446;2023-06-10T08:53:38;24.90;37.70
76789;DHT22;65740;52.464;13.446;2023-06-10T08:56:08;24.90;37.80
76789;DHT22;65740;52.464;13.446;2023-06-10T08:58:35;24.90;37.30
76789;DHT22;65740;52.464;13.446;2023-06-10T09:01:07;24.90;37.30
76789;DHT22;65740;52.464;13.446;2023-06-10T09:03:35;24.90;37.80
76789;DHT22;65740;52.464;13.446;2023-06-10T09:06:04;24.90;38.10
76789;DHT22;65740;52.464;13.446;2023-06-10T09:08:31;24.90;38.10
76789;DHT22;65740;52.464;13.446;2023-06-10T09:10:57;24.90;38.00
76789;DHT22;65740;52.464;13.446;2023-06-10T09:13:23;24.90;38.30
76789;DHT22;65740;52.464;13.446;2023-06-10T09:15:48;25.00;38.30
76789;DHT22;65740;52.464;13.446;2023-06-10T09:18:16;25.00;38.30
76789;DHT22;65740;52.464;13.446;2023-06-10T09:20:43;25.00;38.40
76789;DHT22;65740;52.464;13.446;2023-06-10T09:23:08;25.00;38.70
76789;DHT22;65740;52.464;13.446;2023-06-10T09:25:36;25.00;38.50
76789;DHT22;65740;52.464;13.446;2023-06-10T09:28:03;25.10;38.90
76789;DHT22;65740;52.464;13.446;2023-06-10T09:30:31;25.10;38.80
76789;DHT22;65740;52.464;13.446;2023-06-10T09:32:59;25.10;38.90
76789;DHT22;65740;52.464;13.446;2023-06-10T09:35:26;25.10;38.80
76789;DHT22;65740;52.464;13.446;2023-06-10T09:37:59;25.20;39.10
76789;DHT22;65740;52.464;13.446;2023-06-10T09:40:25;25.20;38.80
76789;DHT22;65740;52.464;13.446;2023-06-10T09:42:59;25.20;38.60
76789;DHT22;65740;52.464;13.446;2023-06-10T09:45:30;25.20;39.10
76789;DHT22;65740;52.464;13.446;2023-06-10T09:47:59;25.30;38.70
76789;DHT22;65740;52.464;13.446;2023-06-10T09:50:24;25.30;39.20
76789;DHT22;65740;52.464;13.446;2023-06-10T09:52:50;25.30;39.40
76789;DHT22;65740;52.464;13.446;2023-06-10T09:55:17;25.30;39.00
76789;DHT22;65740;52.464;13.446;2023-06-10T09:57:43;25.40;39.70
76789;DHT22;65740;52.464;13.446;2023-06-10T10:00:13;25.40;39.80
76789;DHT22;65740;52.464;13.446;2023-06-10T10:02:50;25.40;39.10
76789;DHT22;65740;52.464;13.446;2023-06-10T10:05:17;25.40;39.10
76789;DHT22;65740;52.464;13.446;2023-06-10T10:07:43;25.40;39.30
76789;DHT22;65740;52.464;13.446;2023-06-10T10:10:11;25.40;39.40
76789;DHT22;65740;52.464;13.446;2023-06-10T10:12:38;25.40;39.60
76789;DHT22;65740;52.464;13.446;2023-06-10T10:15:07;25.40;38.80
76789;DHT22;65740;52.464;13.446;2023-06-10T10:18:19;25.40;39.40
76789;DHT22;65740;52.464;13.446;2023-06-10T10:20:26;25.40;40.10
76789;DHT22;65740;52.464;13.446;2023-06-10T10:22:59;25.50;39.20
76789;DHT22;65740;52.464;13.446;2023-06-10T10:25:34;25.50;39.90
76789;DHT22;65740;52.464;13.446;2023-06-10T10:28:09;25.50;40.00
76789;DHT22;65740;52.464;13.446;2023-06-10T10:30:58;25.50;39.80
76789;DHT22;65740;52.464;13.446;2023-06-10T10:33:36;25.60;39.30
76789;DHT22;65740;52.464;13.446;2023-06-10T10:36:06;25.50;39.60
76789;DHT22;65740;52.464;13.446;2023-06-10T10:38:33;25.60;39.50
76789;DHT22;65740;52.464;13.446;2023-06-10T10:41:00;25.60;39.70
76789;DHT22;65740;52.464;13.446;2023-06-10T10:43:27;25.60;39.50
76789;DHT22;65740;52.464;13.446;2023-06-10T10:46:01;25.60;39.90
76789;DHT22;65740;52.464;13.446;2023-06-10T10:48:32;25.60;39.30
76789;DHT22;65740;52.464;13.446;2023-06-10T10:50:59;25.60;39.40
76789;DHT22;65740;52.464;13.446;2023-06-10T10:53:25;25.70;39.40
76789;DHT22;65740;52.464;13.446;2023-06-10T10:58:30;25.70;39.00
76789;DHT22;65740;52.464;13.446;2023-06-10T11:00:57;25.70;39.20
76789;DHT22;65740;52.464;13.446;2023-06-10T11:03:28;25.80;38.70
76789;DHT22;65740;52.464;13.446;2023-06-10T11:05:57;25.80;38.60
76789;DHT22;65740;52.464;13.446;2023-06-10T11:10:58;25.90;38.60
76789;DHT22;65740;52.464;13.446;2023-06-10T11:13:25;25.90;38.50
76789;DHT22;65740;52.464;13.446;2023-06-10T11:15:52;25.90;38.30
76789;DHT22;65740;52.464;13.446;2023-06-10T11:18:30;25.90;38.20
76789;DHT22;65740;52.464;13.446;2023-06-10T11:21:04;25.90;38.40
76789;DHT22;65740;52.464;13.446;2023-06-10T11:23:34;25.90;38.30
76789;DHT22;65740;52.464;13.446;2023-06-10T11:31:33;26.00;38.40
76789;DHT22;65740;52.464;13.446;2023-06-10T11:34:04;26.10;38.10
76789;DHT22;65740;52.464;13.446;2023-06-10T11:36:32;26.10;38.00
76789;DHT22;65740;52.464;13.446;2023-06-10T11:39:01;26.10;38.30
76789;DHT22;65740;52.464;13.446;2023-06-10T11:41:28;26.10;38.30
76789;DHT22;65740;52.464;13.446;2023-06-10T11:43:55;26.20;38.50
76789;DHT22;65740;52.464;13.446;2023-06-10T11:46:24;26.20;38.60
76789;DHT22;65740;52.464;13.446;2023-06-10T11:48:56;26.30;38.60
76789;DHT22;65740;52.464;13.446;2023-06-10T11:51:27;26.30;40.10
76789;DHT22;65740;52.464;13.446;2023-06-10T11:53:53;26.30;38.90
76789;DHT22;65740;52.464;13.446;2023-06-10T11:56:27;26.30;38.90
76789;DHT22;65740;52.464;13.446;2023-06-10T11:59:00;26.30;38.40
76789;DHT22;65740;52.464;13.446;2023-06-10T12:01:43;26.30;38.70
76789;DHT22;65740;52.464;13.446;2023-06-10T12:04:13;26.30;39.30
76789;DHT22;65740;52.464;13.446;2023-06-10T12:11:45;26.40;41.20
76789;DHT22;65740;52.464;13.446;2023-06-10T12:14:13;26.50;39.10
76789;DHT22;65740;52.464;13.446;2023-06-10T12:16:39;26.50;38.80
76789;DHT22;65740;52.464;13.446;2023-06-10T12:19:05;26.50;39.30
76789;DHT22;65740;52.464;13.446;2023-06-10T12:21:33;26.50;38.90
76789;DHT22;65740;52.464;13.446;2023-06-10T12:24:10;26.50;37.90
76789;DHT22;65740;52.464;13.446;2023-06-10T12:26:41;26.50;39.50
76789;DHT22;65740;52.464;13.446;2023-06-10T12:32:12;26.60;40.00
76789;DHT22;65740;52.464;13.446;2023-06-10T12:34:40;26.70;39.90
76789;DHT22;65740;52.464;13.446;2023-06-10T12:37:10;26.60;40.50
76789;DHT22;65740;52.464;13.446;2023-06-10T12:39:39;26.70;38.90
76789;DHT22;65740;52.464;13.446;2023-06-10T12:42:05;26.60;40.70
76789;DHT22;65740;52.464;13.446;2023-06-10T12:44:38;26.70;40.70
76789;DHT22;65740;52.464;13.446;2023-06-10T12:47:11;26.70;39.60
76789;DHT22;65740;52.464;13.446;2023-06-10T12:49:39;26.80;40.70
76789;DHT22;65740;52.464;13.446;2023-06-10T12:52:06;26.80;41.40
76789;DHT22;65740;52.464;13.446;2023-06-10T12:54:31;26.80;39.60
76789;DHT22;65740;52.464;13.446;2023-06-10T12:56:57;26.80;39.50
76789;DHT22;65740;52.464;13.446;2023-06-10T12:59:23;26.90;40.90
76789;DHT22;65740;52.464;13.446;2023-06-10T13:01:53;27.00;40.30
76789;DHT22;65740;52.464;13.446;2023-06-10T13:04:19;27.00;40.60
76789;DHT22;65740;52.464;13.446;2023-06-10T13:06:46;27.00;40.00
76789;DHT22;65740;52.464;13.446;2023-06-10T13:09:13;26.90;40.30
76789;DHT22;65740;52.464;13.446;2023-06-10T13:11:39;26.90;40.30
76789;DHT22;65740;52.464;13.446;2023-06-10T13:14:05;27.00;40.70
76789;DHT22;65740;52.464;13.446;2023-06-10T13:16:32;27.00;40.60
76789;DHT22;65740;52.464;13.446;2023-06-10T13:18:58;27.00;40.70
76789;DHT22;65740;52.464;13.446;2023-06-10T13:21:23;27.10;40.00
76789;DHT22;65740;52.464;13.446;2023-06-10T13:23:49;27.10;41.10
76789;DHT22;65740;52.464;13.446;2023-06-10T13:26:15;27.10;39.20
76789;DHT22;65740;52.464;13.446;2023-06-10T13:28:44;27.10;40.20
76789;DHT22;65740;52.464;13.446;2023-06-10T13:31:10;27.10;41.30
76789;DHT22;65740;52.464;13.446;2023-06-10T13:33:36;27.20;39.80
76789;DHT22;65740;52.464;13.446;2023-06-10T13:36:01;27.20;39.90
76789;DHT22;65740;52.464;13.446;2023-06-10T13:38:27;27.30;41.10
76789;DHT22;65740;52.464;13.446;2023-06-10T13:40:52;27.30;39.70
76789;DHT22;65740;52.464;13.446;2023-06-10T13:43:18;27.20;43.10
76789;DHT22;65740;52.464;13.446;2023-06-10T13:45:43;27.30;42.70
76789;DHT22;65740;52.464;13.446;2023-06-10T13:48:09;27.40;41.30
76789;DHT22;65740;52.464;13.446;2023-06-10T13:50:35;27.30;41.40
76789;DHT22;65740;52.464;13.446;2023-06-10T13:53:00;27.40;40.00
76789;DHT22;65740;52.464;13.446;2023-06-10T13:55:26;27.40;41.30
76789;DHT22;65740;52.464;13.446;2023-06-10T13:57:51;27.40;40.20
76789;DHT22;65740;52.464;13.446;2023-06-10T14:00:17;27.50;40.60
76789;DHT22;65740;52.464;13.446;2023-06-10T14:02:43;27.50;42.80
76789;DHT22;65740;52.464;13.446;2023-06-10T14:05:08;27.50;41.20
76789;DHT22;65740;52.464;13.446;2023-06-10T14:07:34;27.50;42.60
76789;DHT22;65740;52.464;13.446;2023-06-10T14:10:00;27.50;40.70
76789;DHT22;65740;52.464;13.446;2023-06-10T14:12:26;27.50;40.40
76789;DHT22;65740;52.464;13.446;2023-06-10T14:14:51;27.50;42.90
76789;DHT22;65740;52.464;13.446;2023-06-10T14:17:17;27.40;40.90
76789;DHT22;65740;52.464;13.446;2023-06-10T14:19:43;27.40;40.40
76789;DHT22;65740;52.464;13.446;2023-06-10T14:22:08;27.50;40.20
76789;DHT22;65740;52.464;13.446;2023-06-10T14:24:35;27.50;39.60
76789;DHT22;65740;52.464;13.446;2023-06-10T14:27:01;27.50;40.40
76789;DHT22;65740;52.464;13.446;2023-06-10T14:29:27;27.50;40.90
76789;DHT22;65740;52.464;13.446;2023-06-10T14:31:55;27.50;40.10
76789;DHT22;65740;52.464;13.446;2023-06-10T14:34:21;27.60;39.20
76789;DHT22;65740;52.464;13.446;2023-06-10T14:36:48;27.60;40.10
76789;DHT22;65740;52.464;13.446;2023-06-10T14:39:14;27.60;39.70
76789;DHT22;65740;52.464;13.446;2023-06-10T14:41:40;27.60;41.00
76789;DHT22;65740;52.464;13.446;2023-06-10T14:44:05;27.60;39.30
76789;DHT22;65740;52.464;13.446;2023-06-10T14:46:31;27.60;40.10
76789;DHT22;65740;52.464;13.446;2023-06-10T14:48:57;27.60;39.00
76789;DHT22;65740;52.464;13.446;2023-06-10T14:51:24;27.60;39.30
76789;DHT22;65740;52.464;13.446;2023-06-10T14:53:50;27.60;38.30
76789;DHT22;65740;52.464;13.446;2023-06-10T14:56:16;27.60;40.90
76789;DHT22;65740;52.464;13.446;2023-06-10T14:58:41;27.60;39.30
76789;DHT22;65740;52.464;13.446;2023-06-10T15:01:07;27.60;40.30
76789;DHT22;65740;52.464;13.446;2023-06-10T15:03:32;27.70;41.60
76789;DHT22;65740;52.464;13.446;2023-06-10T15:05:58;27.70;39.50
76789;DHT22;65740;52.464;13.446;2023-06-10T15:08:26;27.80;40.70
76789;DHT22;65740;52.464;13.446;2023-06-10T15:10:53;27.70;39.00
76789;DHT22;65740;52.464;13.446;2023-06-10T15:13:19;27.80;40.40
76789;DHT22;65740;52.464;13.446;2023-06-10T15:15:44;27.80;40.10
76789;DHT22;65740;52.464;13.446;2023-06-10T15:18:10;27.80;39.60
76789;DHT22;65740;52.464;13.446;2023-06-10T15:20:36;27.70;39.10
76789;DHT22;65740;52.464;13.446;2023-06-10T15:23:01;27.80;39.70
76789;DHT22;65740;52.464;13.446;2023-06-10T15:25:27;27.80;38.30
76789;DHT22;65740;52.464;13.446;2023-06-10T15:27:53;27.70;38.70
76789;DHT22;65740;52.464;13.446;2023-06-10T15:30:18;27.80;38.90
76789;DHT22;65740;52.464;13.446;2023-06-10T15:32:44;27.80;39.10
76789;DHT22;65740;52.464;13.446;2023-06-10T15:35:10;27.80;39.50